Time;durP1;ratioP1;P1;durP2;ratioP2;P2;SDS_P1;SDS_P2;PMS_P1;PMS_P2;Temp;Humidity;BMP_temperature;BMP_pressure;BME280_temperature;BME280_humidity;BME280_pressure;Samples;Min_cycle;Max_cycle;Signal;HPM_P1;HPM_P2
2021/07/01 00:01:04;;;;;;;3.92;3.08;;;11.30;99.90;;;;;;4934685;28;20088;-92
2021/07/01 00:03:53;;;;;;;7.13;2.53;;;11.20;99.90;;;;;;4935804;28;20044;-91
2021/07/01 00:06:43;;;;;;;5.25;2.95;;;11.30;99.90;;;;;;4958833;28;20040;-92
2021/07/01 00:09:31;;;;;;;3.40;2.67;;;11.20;99.90;;;;;;4960406;28;20441;-91
2021/07/01 00:12:18;;;;;;;3.30;2.65;;;11.20;99.90;;;;;;4930595;29;20058;-93
2021/07/01 00:15:10;;;;;;;4.15;2.78;;;11.20;99.90;;;;;;4932981;28;20047;-90
2021/07/01 00:17:58;;;;;;;9.27;2.33;;;11.20;99.90;;;;;;4932797;29;20051;-92
2021/07/01 00:20:46;;;;;;;3.17;2.75;;;11.20;99.90;;;;;;4935323;29;20048;-94
2021/07/01 00:23:34;;;;;;;4.40;2.45;;;11.20;99.90;;;;;;4941815;28;20042;-93
2021/07/01 00:26:21;;;;;;;4.18;2.65;;;11.20;99.90;;;;;;4943488;29;20062;-93
2021/07/01 00:29:09;;;;;;;3.92;2.40;;;11.20;99.90;;;;;;4964980;28;20055;-93
2021/07/01 00:31:56;;;;;;;2.90;2.67;;;11.20;99.90;;;;;;4933973;29;20052;-93
2021/07/01 00:34:43;;;;;;;3.08;2.67;;;11.20;99.90;;;;;;4931950;29;20675;-92
2021/07/01 00:37:32;;;;;;;4.03;2.20;;;11.20;99.90;;;;;;4943149;29;20043;-92
2021/07/01 00:40:23;;;;;;;2.67;2.03;;;11.10;99.90;;;;;;4941405;29;20050;-93
2021/07/01 00:43:11;;;;;;;2.30;2.08;;;11.20;99.90;;;;;;4934927;28;20051;-92
2021/07/01 00:46:02;;;;;;;1.90;1.75;;;11.10;99.90;;;;;;4955840;28;20044;-92
2021/07/01 00:48:50;;;;;;;3.47;2.22;;;11.20;99.90;;;;;;4946274;28;20055;-93
2021/07/01 00:51:37;;;;;;;3.65;2.10;;;11.20;99.90;;;;;;4960939;28;20447;-91
2021/07/01 00:54:30;;;;;;;3.50;2.55;;;11.20;99.90;;;;;;4958126;28;20508;-92
2021/07/01 00:57:21;;;;;;;3.78;2.10;;;11.20;99.90;;;;;;4962413;28;20063;-91
2021/07/01 01:00:30;;;;;;;3.17;1.63;;;11.10;99.90;;;;;;4933803;28;20052;-94
2021/07/01 01:03:18;;;;;;;2.63;1.90;;;11.10;99.90;;;;;;4930029;29;20497;-92
2021/07/01 01:06:09;;;;;;;2.25;1.67;;;11.10;99.90;;;;;;4948904;28;20048;-92
2021/07/01 01:08:57;;;;;;;3.40;2.17;;;11.10;99.90;;;;;;4933762;29;20044;-92
2021/07/01 01:11:45;;;;;;;2.10;1.90;;;11.10;99.90;;;;;;4937654;28;20055;-92
2021/07/01 01:14:32;;;;;;;3.58;2.15;;;11.10;99.90;;;;;;4944498;28;20059;-92
2021/07/01 01:17:20;;;;;;;1.58;1.42;;;11.10;99.90;;;;;;4966422;28;20462;-91
2021/07/01 01:20:08;;;;;;;2.88;1.90;;;11.10;99.90;;;;;;4938033;28;20425;-91
2021/07/01 01:23:01;;;;;;;2.67;1.65;;;11.10;99.90;;;;;;4945687;28;20059;-92
2021/07/01 01:25:58;;;;;;;5.30;1.80;;;11.10;99.90;;;;;;4934773;29;20039;-91
2021/07/01 01:28:49;;;;;;;2.30;1.92;;;11.10;99.90;;;;;;4948227;29;20050;-90
2021/07/01 01:31:37;;;;;;;1.73;1.58;;;11.10;99.90;;;;;;4961882;28;20055;-91
2021/07/01 01:34:24;;;;;;;4.85;1.80;;;11.10;99.90;;;;;;4958088;28;20059;-93
2021/07/01 01:37:12;;;;;;;4.43;2.50;;;11.10;99.90;;;;;;4933413;29;20378;-92
2021/07/01 01:40:00;;;;;;;2.15;1.95;;;11.10;99.90;;;;;;4937992;29;20123;-92
2021/07/01 01:42:48;;;;;;;4.68;2.20;;;11.10;99.90;;;;;;4969762;28;20039;-90
2021/07/01 01:45:38;;;;;;;2.47;2.28;;;11.10;99.90;;;;;;4947331;29;20406;-92
2021/07/01 01:48:26;;;;;;;4.38;2.42;;;11.10;99.90;;;;;;4963150;28;20126;-91
2021/07/01 01:51:14;;;;;;;2.30;2.10;;;11.10;99.90;;;;;;4924859;29;20044;-92
2021/07/01 01:54:05;;;;;;;4.07;2.10;;;11.10;99.90;;;;;;4967278;28;20062;-91
2021/07/01 01:56:52;;;;;;;3.55;1.92;;;11.10;99.90;;;;;;4947158;28;20055;-93
2021/07/01 01:59:40;;;;;;;2.72;2.10;;;11.10;99.90;;;;;;4967046;28;20051;-90
2021/07/01 02:02:27;;;;;;;2.20;2.00;;;11.10;99.90;;;;;;4936383;29;20096;-91
2021/07/01 02:05:16;;;;;;;4.90;2.38;;;11.10;99.90;;;;;;4936435;29;20036;-90
2021/07/01 02:08:08;;;;;;;3.45;2.20;;;11.20;99.90;;;;;;4937582;28;20052;-91
2021/07/01 02:10:55;;;;;;;2.23;1.67;;;11.10;99.90;;;;;;4944125;28;20056;-89
2021/07/01 02:13:43;;;;;;;2.70;2.17;;;11.20;99.90;;;;;;4953199;28;20500;-92
2021/07/01 02:16:30;;;;;;;4.85;1.85;;;11.20;99.90;;;;;;4961498;28;20058;-90
2021/07/01 02:19:17;;;;;;;6.53;1.90;;;11.20;99.90;;;;;;4942192;29;20102;-92
2021/07/01 02:22:05;;;;;;;1.90;1.80;;;11.20;99.90;;;;;;4935006;28;20127;-92
2021/07/01 02:24:53;;;;;;;2.25;2.05;;;11.30;99.90;;;;;;4943723;28;20126;-91
2021/07/01 02:27:41;;;;;;;3.75;2.22;;;11.30;99.90;;;;;;4935883;29;20140;-91
2021/07/01 02:30:28;;;;;;;4.40;1.77;;;11.30;99.90;;;;;;4935205;28;20059;-90
2021/07/01 02:33:16;;;;;;;2.70;2.17;;;11.30;99.90;;;;;;4930242;28;20641;-92
2021/07/01 02:36:04;;;;;;;2.92;2.30;;;11.30;99.90;;;;;;4937425;29;20376;-90
2021/07/01 02:38:52;;;;;;;4.78;2.33;;;11.30;99.90;;;;;;4932189;29;20055;-91
2021/07/01 02:41:39;;;;;;;2.63;2.30;;;11.30;99.90;;;;;;4934127;29;20059;-91
2021/07/01 02:44:27;;;;;;;2.22;2.03;;;11.30;99.90;;;;;;4938284;28;20445;-91
2021/07/01 02:47:14;;;;;;;3.00;2.53;;;11.30;99.90;;;;;;4932035;29;20054;-91
2021/07/01 02:50:06;;;;;;;3.58;2.60;;;11.30;99.90;;;;;;4931586;29;20054;-91
2021/07/01 02:52:55;;;;;;;3.08;2.72;;;11.30;99.90;;;;;;4965933;28;20048;-90
2021/07/01 02:55:43;;;;;;;7.18;2.65;;;11.30;99.90;;;;;;4956211;28;20126;-93
2021/07/01 02:58:30;;;;;;;3.15;2.85;;;11.30;99.90;;;;;;4943996;28;20355;-89
2021/07/01 03:01:20;;;;;;;5.13;3.17;;;11.30;99.90;;;;;;4936532;28;20134;-91
2021/07/01 03:04:10;;;;;;;5.20;2.93;;;11.30;99.90;;;;;;4959024;28;20143;-91
2021/07/01 03:06:58;;;;;;;4.20;2.95;;;11.30;99.90;;;;;;4931792;29;20055;-91
2021/07/01 03:09:45;;;;;;;3.50;3.20;;;11.30;99.90;;;;;;4958230;28;20036;-89
2021/07/01 03:12:33;;;;;;;4.55;3.30;;;11.30;99.90;;;;;;4934801;29;20052;-91
2021/07/01 03:15:23;;;;;;;3.65;3.28;;;11.40;99.90;;;;;;4960258;28;20055;-91
2021/07/01 03:18:11;;;;;;;4.65;3.60;;;11.40;99.90;;;;;;4953712;28;20083;-91
2021/07/01 03:20:58;;;;;;;5.07;3.58;;;11.40;99.90;;;;;;4931863;29;20421;-89
2021/07/01 03:23:46;;;;;;;5.03;3.58;;;11.40;99.90;;;;;;4954551;28;20074;-91
2021/07/01 03:26:33;;;;;;;4.35;3.60;;;11.40;99.90;;;;;;4934140;29;20115;-91
2021/07/01 03:29:21;;;;;;;5.28;3.38;;;11.40;99.90;;;;;;4934109;28;20103;-89
2021/07/01 03:32:08;;;;;;;7.25;3.40;;;11.40;99.90;;;;;;4933462;29;20058;-89
2021/07/01 03:34:57;;;;;;;3.88;3.38;;;11.40;99.90;;;;;;4930533;29;20051;-92
2021/07/01 03:37:45;;;;;;;4.70;3.85;;;11.40;99.90;;;;;;4959970;28;20469;-91
2021/07/01 03:40:34;;;;;;;5.72;3.95;;;11.40;99.90;;;;;;4961006;28;20102;-92
2021/07/01 03:43:22;;;;;;;5.72;4.40;;;11.40;99.90;;;;;;4933354;29;20134;-92
2021/07/01 03:46:14;;;;;;;5.25;4.28;;;11.40;99.90;;;;;;4933898;29;20083;-89
2021/07/01 03:49:01;;;;;;;10.07;5.10;;;11.40;99.90;;;;;;4931010;29;20040;-92
2021/07/01 03:51:49;;;;;;;7.88;4.53;;;11.40;99.90;;;;;;4933666;29;20122;-91
2021/07/01 03:54:39;;;;;;;7.75;5.20;;;11.50;99.90;;;;;;4933666;28;20056;-93
2021/07/01 03:57:27;;;;;;;7.90;5.25;;;11.40;99.90;;;;;;4966393;28;20123;-94
2021/07/01 04:00:17;;;;;;;6.75;5.43;;;11.40;99.90;;;;;;4935637;29;20063;-92
2021/07/01 04:03:07;;;;;;;9.40;5.80;;;11.40;99.90;;;;;;4935326;28;20074;-94
2021/07/01 04:06:02;;;;;;;9.57;5.75;;;11.40;99.90;;;;;;4965111;28;20043;-92
2021/07/01 04:09:06;;;;;;;8.80;5.72;;;11.40;99.90;;;;;;4961371;28;20047;-93
2021/07/01 04:11:57;;;;;;;7.35;6.03;;;11.40;99.90;;;;;;4942544;29;20055;-91
2021/07/01 04:14:45;;;;;;;9.18;6.60;;;11.40;99.90;;;;;;4960490;28;20080;-92
2021/07/01 04:17:46;;;;;;;;;;;;;;;;;;;;;
2021/07/01 04:20:35;;;;;;;10.70;6.90;;;11.50;99.90;;;;;;4945972;28;20069;-92
2021/07/01 04:23:32;;;;;;;11.70;6.47;;;11.50;99.90;;;;;;4934782;29;20059;-93
2021/07/01 04:35:12;;;;;;;10.05;6.82;;;11.50;99.90;;;;;;4976955;28;20061;-93
2021/07/01 04:50:46;;;;;;;10.60;6.57;;;11.60;99.90;;;;;;4912604;29;20032;-92
2021/07/01 05:02:11;;;;;;;9.40;6.07;;;11.70;99.90;;;;;;4885238;29;20112;-91
2021/07/01 05:04:59;;;;;;;9.60;6.07;;;11.80;99.90;;;;;;4915108;29;20038;-92
2021/07/01 05:07:46;;;;;;;7.40;5.60;;;11.80;99.90;;;;;;4916054;28;20044;-91
2021/07/01 05:10:35;;;;;;;10.60;6.57;;;11.80;99.90;;;;;;4896683;29;20113;-90
2021/07/01 05:13:24;;;;;;;10.02;6.28;;;11.90;99.90;;;;;;4917082;29;20049;-92
2021/07/01 05:16:15;;;;;;;8.73;5.57;;;11.90;99.90;;;;;;4926122;29;20268;-93
2021/07/01 05:19:02;;;;;;;7.35;4.93;;;11.90;99.90;;;;;;4914666;29;20079;-92
2021/07/01 05:21:52;;;;;;;7.15;4.95;;;11.90;99.90;;;;;;4913412;28;20180;-92
2021/07/01 05:24:41;;;;;;;6.53;4.68;;;12.00;99.90;;;;;;4913467;29;20049;-93
2021/07/01 05:27:31;;;;;;;8.35;4.88;;;12.00;99.90;;;;;;4899430;29;20049;-93
2021/07/01 05:30:19;;;;;;;7.13;4.38;;;12.10;99.90;;;;;;4895660;29;20049;-90
2021/07/01 05:33:09;;;;;;;4.03;3.42;;;12.10;99.90;;;;;;4924271;29;20498;-93
2021/07/01 05:35:56;;;;;;;9.50;3.45;;;12.10;99.90;;;;;;4899795;29;20112;-93
2021/07/01 05:38:44;;;;;;;3.88;3.10;;;12.20;99.90;;;;;;4911402;29;20048;-92
2021/07/01 05:41:31;;;;;;;3.42;3.08;;;12.30;99.90;;;;;;4904390;29;20387;-91
2021/07/01 05:44:18;;;;;;;6.25;3.47;;;12.30;99.90;;;;;;4914219;29;20096;-93
2021/07/01 05:47:06;;;;;;;3.33;3.00;;;12.40;99.90;;;;;;4910129;29;20044;-90
2021/07/01 05:49:53;;;;;;;9.43;2.67;;;12.40;99.90;;;;;;4910982;29;20041;-89
2021/07/01 05:52:43;;;;;;;5.95;2.50;;;12.40;99.90;;;;;;4913429;29;20466;-92
2021/07/01 05:55:35;;;;;;;5.13;2.75;;;12.50;99.90;;;;;;4893644;29;20466;-93
2021/07/01 05:58:29;;;;;;;3.20;2.70;;;12.50;99.90;;;;;;4918959;29;20072;-93
2021/07/01 06:01:17;;;;;;;6.25;3.40;;;12.50;99.90;;;;;;4920133;29;20134;-92
2021/07/01 06:04:28;;;;;;;4.43;3.10;;;12.50;99.90;;;;;;4937752;29;20051;-93
2021/07/01 06:07:27;;;;;;;5.43;3.35;;;12.50;99.90;;;;;;4936684;28;20114;-91
2021/07/01 06:10:18;;;;;;;6.85;3.67;;;12.40;99.90;;;;;;4936297;29;20142;-92
2021/07/01 06:16:58;;;;;;;5.13;3.38;;;12.40;99.90;;;;;;4938223;29;20075;-92
2021/07/01 06:19:49;;;;;;;8.48;3.47;;;12.40;99.90;;;;;;4964089;28;20047;-92
2021/07/01 06:22:37;;;;;;;8.20;3.78;;;12.40;99.90;;;;;;4947465;28;20047;-93
2021/07/01 06:25:25;;;;;;;8.70;3.70;;;12.40;99.90;;;;;;4938887;28;20044;-92
2021/07/01 06:28:21;;;;;;;7.03;4.18;;;12.50;99.90;;;;;;4956361;29;20062;-92
2021/07/01 06:31:26;;;;;;;7.72;3.65;;;12.50;99.90;;;;;;4948016;28;20048;-94
2021/07/01 06:34:25;;;;;;;5.03;3.55;;;12.60;99.90;;;;;;4939253;29;20047;-92
2021/07/01 06:37:17;;;;;;;4.68;3.40;;;12.70;99.90;;;;;;4942415;28;20075;-92
2021/07/01 06:40:10;;;;;;;4.55;3.60;;;12.80;99.90;;;;;;4939771;29;20059;-92
2021/07/01 06:43:18;;;;;;;7.07;3.30;;;12.90;99.90;;;;;;4959464;28;20039;-94
2021/07/01 06:46:06;;;;;;;8.27;3.80;;;13.00;99.90;;;;;;4948138;28;20454;-92
2021/07/01 06:49:01;;;;;;;7.72;4.18;;;13.00;99.90;;;;;;4936056;28;20039;-92
2021/07/01 06:52:37;;;;;;;7.72;3.63;;;13.00;99.90;;;;;;4937771;28;20044;-94
2021/07/01 06:55:31;;;;;;;7.65;4.72;;;13.10;99.90;;;;;;4931714;29;20481;-93
2021/07/01 06:58:43;;;;;;;6.32;4.47;;;13.10;99.90;;;;;;4941693;29;20040;-93
2021/07/01 07:06:38;;;;;;;5.95;4.13;;;13.30;99.90;;;;;;4899276;29;20485;-91
2021/07/01 07:14:08;;;;;;;6.07;3.95;;;13.50;99.90;;;;;;4922367;29;20036;-90
2021/07/01 07:26:14;;;;;;;;;;;;;;;;;;;;;
2021/07/01 07:30:19;;;;;;;;;;;;;;;;;;;;;
2021/07/01 07:41:14;;;;;;;6.57;3.80;;;14.20;99.90;;;;;;4870883;29;20052;-93
2021/07/01 07:44:23;;;;;;;;;;;14.40;99.90;;;;;;4889061;29;20045;-92
2021/07/01 07:47:20;;;;;;;7.50;4.07;;;14.50;99.90;;;;;;4860997;29;20347;-92
2021/07/01 07:54:29;;;;;;;5.80;4.03;;;14.50;99.90;;;;;;4894401;29;20092;-94
2021/07/01 08:14:25;;;;;;;;;;;;;;;;;;;;;
2021/07/01 08:17:31;;;;;;;4.97;3.60;;;14.60;99.90;;;;;;4795233;29;20204;-93
2021/07/01 08:20:34;;;;;;;7.60;4.78;;;14.40;99.90;;;;;;4900884;29;20084;-93
2021/07/01 08:31:29;;;;;;;4.97;3.50;;;14.40;99.90;;;;;;4898833;29;20048;-92
2021/07/01 08:34:22;;;;;;;4.10;3.45;;;14.50;99.90;;;;;;4904615;29;20056;-92
2021/07/01 08:37:09;;;;;;;5.10;3.45;;;14.30;99.90;;;;;;4895783;29;20060;-92
2021/07/01 08:40:09;;;;;;;5.60;3.95;;;14.30;99.90;;;;;;4900662;29;20044;-89
2021/07/01 08:43:01;;;;;;;6.80;5.05;;;14.30;99.90;;;;;;4924562;29;20065;-92
2021/07/01 08:46:12;;;;;;;4.82;4.15;;;14.10;99.90;;;;;;4931554;29;20068;-92
2021/07/01 08:49:07;;;;;;;10.07;4.60;;;13.90;99.90;;;;;;4936661;28;20047;-94
2021/07/01 08:55:57;;;;;;;8.02;5.53;;;13.70;99.90;;;;;;4935492;28;20047;-91
2021/07/01 09:02:57;;;;;;;7.95;4.70;;;13.70;99.90;;;;;;4932892;29;20047;-93
2021/07/01 09:06:03;;;;;;;5.45;4.28;;;13.80;99.90;;;;;;4915226;28;20156;-92
2021/07/01 09:09:07;;;;;;;4.95;4.10;;;14.00;99.90;;;;;;4919873;28;20058;-92
2021/07/01 09:12:00;;;;;;;5.88;4.00;;;13.90;99.90;;;;;;4915530;29;20052;-92
2021/07/01 09:15:01;;;;;;;6.55;4.00;;;13.90;99.90;;;;;;4931084;28;20036;-90
2021/07/01 09:17:48;;;;;;;5.47;3.97;;;13.90;99.90;;;;;;4950022;28;20128;-93
2021/07/01 09:20:38;;;;;;;5.25;3.85;;;13.80;99.90;;;;;;4961691;28;20043;-93
2021/07/01 09:23:29;;;;;;;4.60;4.13;;;13.80;99.90;;;;;;4936882;29;20039;-92
2021/07/01 09:26:24;;;;;;;4.55;4.13;;;13.80;99.90;;;;;;4938157;29;20043;-91
2021/07/01 09:29:11;;;;;;;5.45;4.22;;;13.80;99.90;;;;;;4931944;28;20380;-89
2021/07/01 09:32:00;;;;;;;5.65;4.40;;;13.80;99.90;;;;;;4971348;28;20108;-90
2021/07/01 09:34:49;;;;;;;2.70;2.35;;;13.80;99.90;;;;;;4928558;29;20357;-90
2021/07/01 09:37:44;;;;;;;3.30;3.00;;;13.80;99.90;;;;;;4944565;28;20047;-92
2021/07/01 09:40:36;;;;;;;2.92;2.63;;;13.90;99.90;;;;;;4945709;28;20051;-93
2021/07/01 09:43:26;;;;;;;4.00;2.90;;;14.30;99.90;;;;;;4953255;28;20063;-90
2021/07/01 09:46:18;;;;;;;5.05;2.80;;;14.60;99.90;;;;;;4958069;28;20464;-90
2021/07/01 09:49:09;;;;;;;2.70;2.50;;;14.60;99.90;;;;;;4939074;28;20048;-91
2021/07/01 09:52:01;;;;;;;3.97;3.05;;;14.60;99.90;;;;;;4935201;29;20167;-91
2021/07/01 09:54:56;;;;;;;3.57;2.60;;;14.50;99.90;;;;;;4962094;28;20044;-90
2021/07/01 09:57:46;;;;;;;4.90;2.60;;;14.50;99.90;;;;;;4936151;29;20395;-93
2021/07/01 10:00:33;;;;;;;2.55;2.35;;;14.40;99.90;;;;;;4960068;28;20052;-90
2021/07/01 10:03:23;;;;;;;2.38;1.98;;;14.40;99.90;;;;;;4937838;29;20044;-93
2021/07/01 10:06:16;;;;;;;4.47;2.58;;;14.40;99.90;;;;;;4955611;28;20554;-92
2021/07/01 10:09:40;;;;;;;4.95;2.78;;;14.40;99.90;;;;;;4934526;28;20067;-94
2021/07/01 10:12:29;;;;;;;3.50;2.60;;;14.50;99.90;;;;;;4935917;28;20083;-92
2021/07/01 10:15:36;;;;;;;2.28;2.08;;;14.50;99.90;;;;;;4947314;29;20072;-92
2021/07/01 10:18:25;;;;;;;2.72;2.53;;;14.60;99.90;;;;;;4962502;28;20054;-91
2021/07/01 10:21:16;;;;;;;3.28;1.75;;;14.80;99.90;;;;;;4968799;28;20039;-90
2021/07/01 10:24:19;;;;;;;2.88;1.85;;;14.90;99.90;;;;;;4930711;28;20040;-92
2021/07/01 10:27:09;;;;;;;2.08;1.88;;;15.30;99.90;;;;;;4937996;28;20059;-90
2021/07/01 10:29:59;;;;;;;1.50;1.40;;;15.40;99.90;;;;;;4942376;28;20622;-92
2021/07/01 10:32:49;;;;;;;5.15;1.95;;;15.70;99.90;;;;;;4935267;28;20046;-89
2021/07/01 10:36:01;;;;;;;;;;;;;;;;;;;;;
2021/07/01 10:39:03;;;;;;;2.05;1.73;;;16.00;99.90;;;;;;4929143;28;20370;-90
2021/07/01 10:42:00;;;;;;;2.90;1.83;;;16.00;99.90;;;;;;4935816;29;20172;-90
2021/07/01 10:44:47;;;;;;;2.95;1.70;;;15.80;99.90;;;;;;4936314;29;20098;-91
2021/07/01 10:47:37;;;;;;;1.80;1.70;;;15.50;99.90;;;;;;4936137;29;20455;-93
2021/07/01 10:50:29;;;;;;;2.30;2.10;;;15.10;99.90;;;;;;4937026;29;20118;-95
2021/07/01 10:57:21;;;;;;;2.70;2.30;;;14.70;99.90;;;;;;4934085;29;20036;-93
2021/07/01 11:00:50;;;;;;;;;;;;;;;;;;;;;
2021/07/01 11:05:12;;;;;;;5.43;2.10;;;14.60;99.90;;;;;;4933630;28;20082;-92
2021/07/01 11:09:05;;;;;;;2.55;1.95;;;14.60;99.90;;;;;;4953329;28;20203;-92
2021/07/01 11:12:29;;;;;;;1.90;1.80;;;14.60;99.90;;;;;;4910094;29;20168;-93
2021/07/01 11:16:26;;;;;;;2.13;1.83;;;14.60;99.90;;;;;;4895656;29;20477;-93
2021/07/01 11:19:24;;;;;;;2.75;1.90;;;14.70;99.90;;;;;;4882017;29;20048;-94
2021/07/01 11:22:15;;;;;;;2.88;1.65;;;14.80;99.90;;;;;;4882239;29;20055;-94
2021/07/01 11:25:44;;;;;;;1.75;1.63;;;14.80;99.90;;;;;;4885048;29;20059;-91
2021/07/01 11:28:41;;;;;;;1.70;1.60;;;14.90;99.90;;;;;;4892401;29;20036;-92
2021/07/01 11:32:02;;;;;;;2.35;1.42;;;15.10;99.90;;;;;;4896314;29;20055;-92
2021/07/01 11:35:07;;;;;;;1.75;1.65;;;15.10;99.90;;;;;;4894032;29;20044;-91
2021/07/01 11:37:57;;;;;;;2.08;1.60;;;15.20;99.90;;;;;;4880808;29;20045;-90
2021/07/01 11:40:45;;;;;;;2.35;1.40;;;15.10;99.90;;;;;;4894730;29;20655;-90
2021/07/01 11:43:42;;;;;;;4.85;1.90;;;15.10;99.90;;;;;;4952807;28;20131;-91
2021/07/01 11:46:30;;;;;;;1.92;1.83;;;15.00;99.90;;;;;;4938935;29;20457;-88
2021/07/01 11:49:19;;;;;;;2.25;2.05;;;15.00;99.90;;;;;;4952428;28;20044;-90
2021/07/01 11:56:20;;;;;;;1.58;1.48;;;15.80;99.90;;;;;;4948269;28;20047;-91
2021/07/01 12:11:13;;;;;;;2.17;1.48;;;16.60;99.90;;;;;;4951408;28;20067;-91
2021/07/01 12:14:33;;;;;;;4.22;1.20;;;16.50;99.90;;;;;;4914579;29;20055;-90
2021/07/01 12:17:48;;;;;;;1.63;1.52;;;16.40;99.90;;;;;;4941137;28;20052;-91
2021/07/01 12:20:55;;;;;;;1.77;1.67;;;16.30;99.90;;;;;;4914488;28;20059;-92
2021/07/01 12:23:48;;;;;;;1.60;1.50;;;16.30;99.90;;;;;;4913469;29;20131;-90
2021/07/01 12:26:44;;;;;;;3.30;1.25;;;16.60;99.90;;;;;;4943314;28;20043;-91
2021/07/01 12:30:04;;;;;;;2.80;1.10;;;17.40;99.90;;;;;;4918132;29;20098;-94
2021/07/01 12:33:01;;;;;;;;;;;;;;;;;;;;;
2021/07/01 12:36:40;;;;;;;1.50;1.40;;;18.50;99.90;;;;;;4914196;29;20063;-91
2021/07/01 12:39:29;;;;;;;1.25;1.15;;;18.30;99.90;;;;;;4924831;29;20067;-93
2021/07/01 12:42:26;;;;;;;1.48;1.38;;;19.10;99.90;;;;;;4911075;29;20036;-94
2021/07/01 12:45:14;;;;;;;1.60;1.50;;;19.90;99.90;;;;;;4917293;29;20048;-93
2021/07/01 12:48:45;;;;;;;1.67;1.55;;;21.00;99.90;;;;;;4920271;29;20049;-94
2021/07/01 12:52:01;;;;;;;3.72;1.80;;;21.70;98.30;;;;;;4917893;29;20116;-92
2021/07/01 12:54:57;;;;;;;3.70;2.50;;;20.60;98.50;;;;;;4931117;29;20365;-93
2021/07/01 12:58:17;;;;;;;;;;;;;;;;;;;;;
2021/07/01 13:01:44;;;;;;;3.05;2.35;;;18.80;99.90;;;;;;4929776;28;20070;-93
2021/07/01 13:04:35;;;;;;;9.98;3.30;;;18.30;99.90;;;;;;4956905;28;20172;-91
2021/07/01 13:07:39;;;;;;;4.30;2.50;;;17.90;99.90;;;;;;4935932;29;20040;-91
2021/07/01 13:10:51;;;;;;;5.15;3.28;;;17.40;99.90;;;;;;4997244;28;20062;-92
2021/07/01 13:14:10;;;;;;;;;;;;;;;;;;;;;
2021/07/01 13:17:09;;;;;;;7.07;4.35;;;16.50;99.90;;;;;;4994272;28;20089;-90
2021/07/01 13:20:00;;;;;;;5.90;3.85;;;16.20;99.90;;;;;;4993938;28;20173;-91
2021/07/01 13:23:18;;;;;;;6.38;4.25;;;16.10;99.90;;;;;;4991902;28;20269;-92
2021/07/01 13:26:26;;;;;;;6.55;4.20;;;16.00;99.90;;;;;;4989842;28;20070;-92
2021/07/01 13:33:19;;;;;;;7.53;4.20;;;15.80;99.90;;;;;;4913308;28;20048;-92
2021/07/01 13:36:38;;;;;;;5.07;4.03;;;15.80;99.90;;;;;;4933690;29;20184;-93
2021/07/01 13:39:49;;;;;;;6.28;4.13;;;15.70;99.90;;;;;;4951472;28;20469;-92
2021/07/01 13:43:48;;;;;;;4.13;3.72;;;15.80;99.90;;;;;;4840535;29;20049;-92
2021/07/01 13:46:43;;;;;;;5.43;4.25;;;16.20;99.90;;;;;;4856225;29;20077;-93
2021/07/01 13:49:38;;;;;;;5.35;3.67;;;17.00;99.90;;;;;;4877959;29;20061;-92
2021/07/01 13:52:49;;;;;;;4.25;3.83;;;17.90;99.90;;;;;;4890787;29;20138;-93
2021/07/01 13:56:13;;;;;;;4.28;2.90;;;18.70;99.90;;;;;;4871527;29;20491;-94
2021/07/01 13:59:58;;;;;;;3.35;2.97;;;20.90;99.90;;;;;;4895350;29;20057;-93
2021/07/01 14:02:51;;;;;;;6.38;3.08;;;20.90;94.20;;;;;;4933950;28;20052;-92
2021/07/01 14:05:53;;;;;;;5.25;2.92;;;20.20;95.90;;;;;;4965732;28;20091;-93
2021/07/01 14:08:49;;;;;;;4.38;3.53;;;19.40;99.90;;;;;;4942565;28;20035;-90
2021/07/01 14:12:22;;;;;;;5.03;3.55;;;19.00;99.90;;;;;;4938026;28;20099;-94
2021/07/01 14:15:28;;;;;;;4.00;3.55;;;18.40;99.90;;;;;;4961651;28;20130;-93
2021/07/01 14:18:34;;;;;;;5.00;3.00;;;17.90;99.90;;;;;;4943438;28;20059;-93
2021/07/01 14:21:38;;;;;;;3.97;3.38;;;17.60;99.90;;;;;;4932555;28;20048;-93
2021/07/01 14:24:32;;;;;;;4.22;3.45;;;17.40;99.90;;;;;;4957803;28;20051;-90
2021/07/01 14:27:35;;;;;;;5.00;3.30;;;17.20;99.90;;;;;;4945246;29;20054;-92
2021/07/01 14:30:39;;;;;;;5.50;3.55;;;17.20;99.90;;;;;;4941285;29;20052;-91
2021/07/01 14:33:50;;;;;;;3.70;3.13;;;17.40;99.90;;;;;;4954884;28;20123;-92
2021/07/01 14:37:21;;;;;;;4.68;3.33;;;17.50;99.90;;;;;;4933320;28;20044;-92
2021/07/01 14:40:22;;;;;;;5.85;3.28;;;17.80;99.90;;;;;;4954236;28;20048;-92
2021/07/01 14:43:17;;;;;;;4.82;3.60;;;17.90;99.90;;;;;;4936842;28;20383;-92
2021/07/01 14:46:31;;;;;;;;;;;;;;;;;;;;;
2021/07/01 14:53:39;;;;;;;;;;;;;;;;;;;;;
2021/07/01 14:56:53;;;;;;;8.45;4.07;;;19.80;99.90;;;;;;4942392;28;20551;-92
2021/07/01 14:59:53;;;;;;;6.53;4.18;;;20.10;99.90;;;;;;4946888;29;20075;-89
2021/07/01 15:02:58;;;;;;;6.20;3.88;;;20.00;99.90;;;;;;4940773;28;20128;-93
2021/07/01 15:05:53;;;;;;;4.93;3.88;;;20.00;99.90;;;;;;4942449;28;20055;-91
2021/07/01 15:09:15;;;;;;;4.63;3.67;;;20.00;99.40;;;;;;4940504;28;20616;-93
2021/07/01 15:12:19;;;;;;;4.68;4.00;;;19.50;99.90;;;;;;4947835;28;20057;-92
2021/07/01 15:15:29;;;;;;;5.07;4.50;;;19.20;99.90;;;;;;4931573;29;20126;-90
2021/07/01 15:18:16;;;;;;;5.47;4.40;;;19.10;99.90;;;;;;4938816;28;20652;-91
2021/07/01 15:21:03;;;;;;;6.15;3.70;;;19.00;99.90;;;;;;4936705;29;20055;-92
2021/07/01 15:23:55;;;;;;;8.30;4.65;;;19.10;99.90;;;;;;4933238;29;20058;-92
2021/07/01 15:27:03;;;;;;;6.60;4.40;;;19.30;99.90;;;;;;4936759;29;20043;-93
2021/07/01 15:29:51;;;;;;;19.02;7.75;;;19.50;99.90;;;;;;4934538;28;20050;-90
2021/07/01 15:32:39;;;;;;;9.65;5.97;;;19.50;99.90;;;;;;4933663;29;20059;-92
2021/07/01 15:35:29;;;;;;;8.50;4.85;;;19.50;99.90;;;;;;4957787;28;20059;-92
2021/07/01 15:38:17;;;;;;;7.72;4.82;;;19.50;99.90;;;;;;4941369;29;20534;-91
2021/07/01 15:41:18;;;;;;;7.20;4.45;;;19.50;99.90;;;;;;4933348;29;20445;-90
2021/07/01 15:44:10;;;;;;;5.18;4.03;;;19.40;99.90;;;;;;4952272;28;20051;-90
2021/07/01 15:47:05;;;;;;;6.50;4.05;;;19.00;99.90;;;;;;4933655;29;20067;-92
2021/07/01 15:50:00;;;;;;;5.53;4.50;;;18.60;99.90;;;;;;4942172;29;20055;-93
2021/07/01 15:52:48;;;;;;;11.80;4.07;;;18.20;99.90;;;;;;4949354;28;20396;-94
2021/07/01 15:55:42;;;;;;;4.75;4.10;;;17.90;99.90;;;;;;4960919;28;20163;-91
2021/07/01 15:58:38;;;;;;;6.05;4.20;;;17.80;99.90;;;;;;4928846;29;20039;-93
2021/07/01 16:01:27;;;;;;;7.00;5.10;;;17.70;99.90;;;;;;4933217;29;20116;-90
2021/07/01 16:04:27;;;;;;;6.10;4.43;;;17.60;99.90;;;;;;4944028;29;20047;-93
2021/07/01 16:07:16;;;;;;;6.22;4.30;;;17.50;99.90;;;;;;4964423;28;20131;-93
2021/07/01 16:10:07;;;;;;;6.10;4.68;;;17.40;99.90;;;;;;4930102;29;20048;-93
2021/07/01 16:13:05;;;;;;;6.85;4.50;;;17.30;99.90;;;;;;4961841;28;20588;-93
2021/07/01 16:16:02;;;;;;;5.15;4.28;;;17.30;99.90;;;;;;4941675;29;20134;-91
2021/07/01 16:18:50;;;;;;;5.05;4.05;;;17.30;99.90;;;;;;4934204;29;20044;-89
2021/07/01 16:21:40;;;;;;;4.72;4.07;;;17.20;99.90;;;;;;4940703;29;20070;-89
2021/07/01 16:24:33;;;;;;;5.28;4.15;;;17.20;99.90;;;;;;4957803;28;20075;-94
2021/07/01 16:27:22;;;;;;;8.88;4.30;;;17.10;99.90;;;;;;4964370;28;20073;-92
2021/07/01 16:30:10;;;;;;;6.68;4.00;;;17.00;99.90;;;;;;4943834;29;20055;-92
2021/07/01 16:32:58;;;;;;;5.60;4.20;;;17.00;99.90;;;;;;4936867;29;20183;-91
2021/07/01 16:35:46;;;;;;;6.03;3.95;;;16.90;99.90;;;;;;4938207;28;20059;-91
2021/07/01 16:38:34;;;;;;;6.72;4.75;;;16.90;99.90;;;;;;4945813;28;20056;-91
2021/07/01 16:41:22;;;;;;;8.75;4.30;;;17.00;99.90;;;;;;4940321;29;20047;-94
2021/07/01 16:44:21;;;;;;;4.78;4.10;;;17.10;99.90;;;;;;4927481;28;20044;-92
2021/07/01 17:12:29;;;;;;;8.27;4.60;;;17.10;99.90;;;;;;4848548;29;20053;-92
2021/07/01 17:16:11;;;;;;;7.88;4.47;;;16.90;99.90;;;;;;4845857;29;20042;-92
2021/07/01 17:19:03;;;;;;;7.47;4.97;;;16.90;99.90;;;;;;4837341;29;20101;-91
2021/07/01 17:22:11;;;;;;;6.47;4.72;;;16.80;99.90;;;;;;4858972;29;20048;-92
2021/07/01 17:24:58;;;;;;;7.75;5.28;;;16.70;99.90;;;;;;4863191;29;20045;-92
2021/07/01 17:28:04;;;;;;;9.05;5.63;;;16.60;99.90;;;;;;4866840;29;20117;-90
2021/07/01 17:30:55;;;;;;;7.90;5.30;;;16.50;99.90;;;;;;4849328;29;20092;-91
2021/07/01 17:33:45;;;;;;;9.68;5.72;;;16.40;99.90;;;;;;4856909;29;20053;-91
2021/07/01 17:36:33;;;;;;;8.38;5.28;;;16.40;99.90;;;;;;4870087;29;20146;-90
2021/07/01 17:39:39;;;;;;;8.02;5.53;;;16.40;99.90;;;;;;4914737;29;20055;-92
2021/07/01 17:42:56;;;;;;;7.85;4.75;;;16.30;99.90;;;;;;4881691;29;20193;-92
2021/07/01 17:45:50;;;;;;;6.28;4.80;;;16.30;99.90;;;;;;4903762;29;20111;-92
2021/07/01 17:48:37;;;;;;;9.00;5.60;;;16.30;99.90;;;;;;4930972;29;20041;-91
2021/07/01 17:51:25;;;;;;;7.72;4.72;;;16.30;99.90;;;;;;4906882;29;20041;-91
2021/07/01 17:54:29;;;;;;;;;;;;;;;;;;;;;
2021/07/01 17:57:21;;;;;;;7.95;4.93;;;16.30;99.90;;;;;;4905896;28;20052;-91
2021/07/01 18:00:18;;;;;;;6.60;4.97;;;16.30;99.90;;;;;;4906623;28;20040;-91
2021/07/01 18:03:12;;;;;;;7.55;4.95;;;16.30;99.90;;;;;;4943856;28;20056;-91
2021/07/01 18:06:00;;;;;;;10.18;5.30;;;16.30;99.90;;;;;;4945300;28;20043;-91